Time;durP1;ratioP1;P1;durP2;ratioP2;P2;SDS_P1;SDS_P2;PMS_P1;PMS_P2;Temp;Humidity;BMP_temperature;BMP_pressure;BME280_temperature;BME280_humidity;BME280_pressure;Samples;Min_cycle;Max_cycle;Signal;HPM_P1;HPM_P2
2021/06/27 00:01:24;;;;;;;6.57;4.50;;;18.80;99.90;;;;;;4994418;28;20030;-77
2021/06/27 00:03:52;;;;;;;6.72;4.40;;;18.80;99.90;;;;;;5006124;28;20026;-77
2021/06/27 00:06:19;;;;;;;6.90;4.20;;;18.70;99.90;;;;;;4996333;28;20018;-76
2021/06/27 00:08:45;;;;;;;7.50;4.07;;;18.70;99.90;;;;;;5014592;28;20018;-77
2021/06/27 00:11:12;;;;;;;6.55;4.07;;;18.70;99.90;;;;;;4999728;28;20093;-77
2021/06/27 00:13:40;;;;;;;6.57;4.28;;;18.70;99.90;;;;;;5014797;28;20185;-77
2021/06/27 00:16:07;;;;;;;7.20;4.50;;;18.60;99.90;;;;;;5018792;28;20018;-75
2021/06/27 00:18:33;;;;;;;6.85;4.43;;;18.50;99.90;;;;;;4984756;28;20404;-76
2021/06/27 00:21:01;;;;;;;7.35;4.32;;;18.50;99.90;;;;;;4994532;28;20405;-77
2021/06/27 00:23:29;;;;;;;6.38;4.13;;;18.50;99.90;;;;;;4994329;28;20022;-77
2021/06/27 00:25:57;;;;;;;7.05;4.38;;;18.40;99.90;;;;;;4993003;28;20027;-77
2021/06/27 00:28:23;;;;;;;7.20;4.43;;;18.40;99.90;;;;;;4985414;28;20456;-77
2021/06/27 00:30:51;;;;;;;8.45;4.60;;;18.50;99.90;;;;;;4994027;28;20027;-77
2021/06/27 00:33:18;;;;;;;7.07;4.45;;;18.30;99.90;;;;;;5004655;28;20057;-76
2021/06/27 00:35:44;;;;;;;6.78;4.50;;;18.30;99.90;;;;;;5009111;28;20031;-78
2021/06/27 00:38:09;;;;;;;7.75;4.25;;;18.20;99.90;;;;;;4993817;28;20035;-77
2021/06/27 00:40:35;;;;;;;7.60;4.40;;;18.20;99.90;;;;;;4993854;28;20046;-76
2021/06/27 00:43:02;;;;;;;7.25;4.13;;;18.20;99.90;;;;;;4994166;28;20022;-76
2021/06/27 00:45:29;;;;;;;7.78;4.38;;;18.20;99.90;;;;;;4993766;28;20084;-77
2021/06/27 00:47:58;;;;;;;7.18;4.22;;;18.20;99.90;;;;;;4997014;28;20473;-78
2021/06/27 00:50:26;;;;;;;7.07;4.38;;;18.10;99.90;;;;;;4996523;28;20030;-77
2021/06/27 00:52:53;;;;;;;7.53;4.20;;;18.10;99.90;;;;;;5011599;28;20061;-77
2021/06/27 00:55:19;;;;;;;6.05;3.90;;;18.10;99.90;;;;;;5015060;28;20093;-77
2021/06/27 00:57:47;;;;;;;6.75;4.50;;;18.30;99.90;;;;;;5017243;28;20038;-77
2021/06/27 01:00:20;;;;;;;7.20;4.68;;;18.00;99.90;;;;;;4998406;28;20034;-77
2021/06/27 01:02:46;;;;;;;5.25;3.75;;;18.00;99.90;;;;;;4997893;28;20037;-77
2021/06/27 01:05:18;;;;;;;7.22;4.25;;;18.00;99.90;;;;;;5016317;28;20029;-77
2021/06/27 01:07:44;;;;;;;7.93;4.18;;;18.00;99.90;;;;;;5016624;28;20064;-75
2021/06/27 01:10:10;;;;;;;6.38;4.40;;;17.90;99.90;;;;;;5014900;28;20033;-76
2021/06/27 01:12:36;;;;;;;6.57;4.03;;;17.90;99.90;;;;;;4996252;28;20041;-78
2021/06/27 01:15:04;;;;;;;6.90;4.28;;;17.90;99.90;;;;;;5005254;28;20022;-76
2021/06/27 01:17:30;;;;;;;7.55;4.28;;;17.80;99.90;;;;;;4998023;28;20057;-76
2021/06/27 01:19:56;;;;;;;6.00;3.78;;;17.80;99.90;;;;;;5009988;28;20089;-76
2021/06/27 01:22:24;;;;;;;8.40;4.47;;;17.80;99.90;;;;;;4995836;28;20022;-77
2021/06/27 01:24:50;;;;;;;7.25;4.40;;;17.70;99.90;;;;;;4996734;28;20034;-77
2021/06/27 01:27:15;;;;;;;6.75;4.10;;;17.70;99.90;;;;;;4996714;28;20014;-77
2021/06/27 01:29:41;;;;;;;5.80;3.70;;;17.80;99.90;;;;;;4995855;28;20030;-77
2021/06/27 01:32:10;;;;;;;6.75;4.53;;;17.60;99.90;;;;;;5011610;28;20076;-77
2021/06/27 01:34:38;;;;;;;6.32;4.10;;;17.60;99.90;;;;;;4995509;28;20042;-77
2021/06/27 01:37:05;;;;;;;7.45;4.00;;;17.60;99.90;;;;;;4989011;28;20060;-77
2021/06/27 01:39:32;;;;;;;6.20;4.03;;;17.70;99.90;;;;;;4977767;28;20030;-77
2021/06/27 01:41:57;;;;;;;6.25;4.20;;;17.70;99.90;;;;;;4995775;28;20030;-77
2021/06/27 01:44:24;;;;;;;7.10;4.57;;;17.70;99.90;;;;;;4995375;28;20023;-77
2021/06/27 01:46:50;;;;;;;10.30;4.65;;;17.70;99.90;;;;;;4995619;28;20038;-77
2021/06/27 01:49:16;;;;;;;6.30;4.45;;;17.70;99.90;;;;;;4995456;28;20026;-76
2021/06/27 01:51:42;;;;;;;7.65;4.22;;;17.70;99.90;;;;;;4995827;28;20037;-77
2021/06/27 01:54:08;;;;;;;6.38;3.95;;;17.70;99.90;;;;;;4995882;28;20101;-77
2021/06/27 01:56:34;;;;;;;6.75;4.28;;;17.70;99.90;;;;;;5013827;28;20061;-78
2021/06/27 01:59:03;;;;;;;6.13;4.03;;;17.70;99.90;;;;;;5014510;28;20546;-77
2021/06/27 02:01:36;;;;;;;6.55;4.63;;;17.70;99.90;;;;;;4997421;28;20018;-77
2021/06/27 02:04:04;;;;;;;6.43;3.78;;;17.70;99.90;;;;;;5007948;28;20499;-77
2021/06/27 02:06:32;;;;;;;7.45;4.47;;;17.60;99.90;;;;;;4997059;28;20022;-76
2021/06/27 02:08:58;;;;;;;8.70;4.18;;;17.60;99.90;;;;;;5014986;28;20542;-77
2021/06/27 02:11:26;;;;;;;6.85;4.07;;;17.60;99.90;;;;;;5015421;28;20022;-77
2021/06/27 02:13:54;;;;;;;6.03;4.20;;;17.50;99.90;;;;;;5003463;28;20084;-77
2021/06/27 02:16:20;;;;;;;7.18;4.65;;;17.50;99.90;;;;;;4996044;28;20026;-77
2021/06/27 02:18:49;;;;;;;6.65;4.65;;;17.50;99.90;;;;;;5011618;28;20347;-75
2021/06/27 02:21:25;;;;;;;7.50;4.65;;;17.50;99.90;;;;;;4997277;28;20041;-78
2021/06/27 02:23:51;;;;;;;6.80;4.18;;;17.50;99.90;;;;;;5000319;28;20018;-76
2021/06/27 02:26:18;;;;;;;6.88;4.50;;;17.40;99.90;;;;;;5000926;28;20040;-78
2021/06/27 02:28:45;;;;;;;6.25;4.20;;;17.50;99.90;;;;;;4996966;28;20021;-77
2021/06/27 02:31:11;;;;;;;5.93;4.00;;;17.40;99.90;;;;;;4995531;28;20029;-77
2021/06/27 02:33:37;;;;;;;7.80;3.72;;;17.40;99.90;;;;;;5013486;28;20552;-77
2021/06/27 02:36:03;;;;;;;7.38;4.68;;;17.40;99.90;;;;;;4999447;28;20026;-77
2021/06/27 02:38:29;;;;;;;6.50;4.03;;;17.40;99.90;;;;;;5003315;28;20076;-75
2021/06/27 02:40:55;;;;;;;6.75;3.90;;;17.40;99.90;;;;;;5018283;28;20052;-78
2021/06/27 02:43:21;;;;;;;6.30;4.30;;;17.30;99.90;;;;;;5017430;28;20022;-77
2021/06/27 02:45:47;;;;;;;6.13;4.15;;;17.30;99.90;;;;;;5018587;28;20072;-77
2021/06/27 02:48:14;;;;;;;6.25;4.07;;;17.30;99.90;;;;;;5001769;28;20042;-77
2021/06/27 02:50:40;;;;;;;7.68;4.47;;;17.30;99.90;;;;;;4996601;28;20037;-77
2021/06/27 02:53:08;;;;;;;5.75;3.67;;;17.30;99.90;;;;;;4998079;28;20448;-77
2021/06/27 02:55:33;;;;;;;6.97;3.90;;;17.30;99.90;;;;;;5000082;28;20022;-78
2021/06/27 02:57:59;;;;;;;6.47;3.95;;;17.20;99.90;;;;;;5015341;23;20594;-83
2021/06/27 03:00:25;;;;;;;7.43;4.20;;;17.20;99.90;;;;;;5030081;28;20038;-83
2021/06/27 03:02:51;;;;;;;6.53;4.00;;;17.20;99.90;;;;;;5032006;28;20479;-83
2021/06/27 03:05:17;;;;;;;4.97;3.08;;;17.20;99.90;;;;;;5027121;28;20090;-83
2021/06/27 03:07:44;;;;;;;6.43;3.65;;;17.20;99.90;;;;;;5033527;28;20029;-83
2021/06/27 03:10:13;;;;;;;6.35;3.88;;;17.20;99.90;;;;;;5010465;28;20017;-83
2021/06/27 03:12:44;;;;;;;6.50;4.13;;;17.10;99.90;;;;;;5012018;28;20033;-83
2021/06/27 03:15:12;;;;;;;6.28;4.10;;;17.20;99.90;;;;;;5004811;28;20033;-83
2021/06/27 03:17:39;;;;;;;5.47;3.60;;;17.20;99.90;;;;;;5013262;28;20432;-83
2021/06/27 03:20:07;;;;;;;6.20;3.80;;;17.20;99.90;;;;;;5011615;28;20026;-83
2021/06/27 03:22:32;;;;;;;5.93;3.55;;;17.20;99.90;;;;;;5014211;28;20113;-83
2021/06/27 03:24:59;;;;;;;6.55;3.65;;;17.20;99.90;;;;;;5002915;28;20046;-82
2021/06/27 03:27:25;;;;;;;7.15;3.80;;;17.20;99.90;;;;;;5009577;28;20080;-83
2021/06/27 03:29:51;;;;;;;6.28;3.95;;;17.60;99.90;;;;;;4993914;28;20031;-82
2021/06/27 03:32:16;;;;;;;5.65;3.50;;;17.20;99.90;;;;;;4998150;28;20021;-84
2021/06/27 03:34:42;;;;;;;7.57;3.83;;;17.20;99.90;;;;;;5014146;28;20487;-83
2021/06/27 03:37:07;;;;;;;6.18;3.70;;;17.30;99.90;;;;;;5012281;28;20172;-83
2021/06/27 03:39:33;;;;;;;6.63;3.70;;;17.30;99.90;;;;;;5011783;28;20040;-83
2021/06/27 03:41:59;;;;;;;6.22;3.97;;;17.30;99.90;;;;;;5011649;28;20029;-83
2021/06/27 03:44:26;;;;;;;6.22;3.58;;;17.30;99.90;;;;;;5013540;28;20554;-84
2021/06/27 03:46:52;;;;;;;7.03;4.07;;;17.30;99.90;;;;;;5013119;28;20022;-83
2021/06/27 03:49:19;;;;;;;6.43;4.10;;;17.30;99.90;;;;;;5013079;28;20100;-83
2021/06/27 03:51:45;;;;;;;5.35;3.50;;;17.30;99.90;;;;;;4998019;28;20050;-83
2021/06/27 03:54:11;;;;;;;6.15;3.65;;;17.30;99.90;;;;;;4992636;28;20165;-83
2021/06/27 03:56:37;;;;;;;6.47;3.90;;;17.30;99.90;;;;;;5009273;28;20057;-83
2021/06/27 03:59:04;;;;;;;5.68;3.75;;;17.30;99.90;;;;;;5009452;28;20456;-83
2021/06/27 04:01:30;;;;;;;5.93;3.53;;;17.40;99.90;;;;;;4992307;28;20472;-83
2021/06/27 04:03:56;;;;;;;5.72;3.60;;;17.40;99.90;;;;;;5008405;28;20045;-83
2021/06/27 04:06:21;;;;;;;7.50;4.13;;;17.40;99.90;;;;;;5002978;28;20018;-82
2021/06/27 04:08:47;;;;;;;7.10;4.90;;;17.40;99.90;;;;;;4992035;28;20080;-83
2021/06/27 04:11:13;;;;;;;6.10;3.95;;;17.50;99.90;;;;;;4992171;28;20503;-83
2021/06/27 04:13:38;;;;;;;5.82;3.83;;;17.50;99.90;;;;;;5009072;28;20077;-83
2021/06/27 04:16:05;;;;;;;6.70;3.70;;;17.50;99.90;;;;;;4999004;28;20093;-82
2021/06/27 04:18:32;;;;;;;6.35;3.60;;;17.40;99.90;;;;;;4989721;28;20030;-83
2021/06/27 04:20:59;;;;;;;5.38;3.50;;;17.50;99.90;;;;;;4993542;28;20031;-83
2021/06/27 04:23:26;;;;;;;7.57;4.57;;;17.50;99.90;;;;;;4999620;28;20022;-82
2021/06/27 04:25:52;;;;;;;5.30;3.65;;;17.50;99.90;;;;;;5012848;28;20506;-83
2021/06/27 04:28:17;;;;;;;6.60;3.90;;;17.40;99.90;;;;;;5014174;28;20030;-82
2021/06/27 04:30:44;;;;;;;6.22;3.53;;;17.40;99.90;;;;;;5014031;28;20045;-83
2021/06/27 04:33:10;;;;;;;5.50;3.47;;;17.50;99.90;;;;;;5001176;28;20042;-82
2021/06/27 04:35:38;;;;;;;6.10;3.90;;;17.60;99.90;;;;;;4995168;28;20031;-82
2021/06/27 04:38:06;;;;;;;7.00;3.95;;;17.60;99.90;;;;;;4994486;28;20092;-83
2021/06/27 04:40:33;;;;;;;4.88;3.30;;;17.70;99.90;;;;;;4993938;28;20460;-83
2021/06/27 04:42:58;;;;;;;4.90;3.20;;;17.70;99.90;;;;;;5008299;28;20030;-83
2021/06/27 04:45:24;;;;;;;7.78;3.67;;;17.60;99.90;;;;;;5012718;28;20120;-83
2021/06/27 04:47:50;;;;;;;6.25;3.65;;;17.80;99.90;;;;;;5012492;28;20026;-83
2021/06/27 04:50:16;;;;;;;5.80;3.63;;;17.80;99.90;;;;;;5012015;28;20026;-83
2021/06/27 04:52:42;;;;;;;5.75;3.58;;;17.80;99.90;;;;;;4997560;28;20041;-83
2021/06/27 04:55:08;;;;;;;6.15;3.65;;;18.00;99.90;;;;;;4998294;28;20391;-82
2021/06/27 04:57:34;;;;;;;5.60;3.45;;;18.00;99.90;;;;;;5013658;28;20026;-82
2021/06/27 05:00:01;;;;;;;6.40;3.92;;;18.00;99.90;;;;;;4999478;28;20120;-83
2021/06/27 05:02:26;;;;;;;7.05;3.67;;;18.00;99.90;;;;;;4993978;28;20081;-83
2021/06/27 05:04:52;;;;;;;7.65;3.78;;;18.10;99.90;;;;;;4992368;28;20050;-82
2021/06/27 05:07:18;;;;;;;6.32;3.80;;;18.10;99.90;;;;;;5011275;28;20030;-82
2021/06/27 05:09:43;;;;;;;6.95;3.80;;;18.20;99.90;;;;;;5008307;28;20022;-83
2021/06/27 05:12:09;;;;;;;5.90;3.55;;;18.20;99.90;;;;;;4994199;28;20038;-82
2021/06/27 05:14:35;;;;;;;4.85;3.25;;;18.20;99.90;;;;;;4993998;28;20034;-82
2021/06/27 05:17:01;;;;;;;5.43;3.33;;;18.20;99.90;;;;;;4998283;28;20064;-83
2021/06/27 05:19:27;;;;;;;6.30;3.65;;;18.20;99.90;;;;;;4992045;28;20030;-83
2021/06/27 05:21:52;;;;;;;6.22;3.72;;;18.10;99.90;;;;;;4992452;28;20027;-83
2021/06/27 05:24:21;;;;;;;7.88;3.60;;;18.30;99.90;;;;;;4993501;28;20025;-82
2021/06/27 05:26:47;;;;;;;5.35;3.67;;;18.20;99.90;;;;;;4999854;28;20029;-82
2021/06/27 05:29:13;;;;;;;7.30;4.13;;;18.30;99.90;;;;;;5011392;28;20042;-82
2021/06/27 05:31:39;;;;;;;7.55;3.47;;;18.30;99.90;;;;;;5011097;28;20136;-83
2021/06/27 05:34:05;;;;;;;6.55;3.75;;;18.50;99.90;;;;;;5008333;28;20061;-82
2021/06/27 05:36:37;;;;;;;6.97;3.58;;;18.50;99.90;;;;;;5008811;28;20069;-83
2021/06/27 05:39:07;;;;;;;7.53;3.92;;;18.70;99.90;;;;;;5008432;28;20026;-83
2021/06/27 05:41:34;;;;;;;6.03;3.72;;;18.80;99.90;;;;;;4993607;28;20042;-83
2021/06/27 05:44:00;;;;;;;5.70;3.63;;;18.90;99.90;;;;;;5008435;28;20033;-83
2021/06/27 05:46:25;;;;;;;6.18;3.72;;;18.90;99.90;;;;;;4991968;28;20023;-83
2021/06/27 05:48:51;;;;;;;6.45;3.53;;;19.00;99.90;;;;;;5006574;28;20026;-83
2021/06/27 05:51:18;;;;;;;5.68;3.25;;;18.90;99.90;;;;;;5011372;28;20088;-83
2021/06/27 05:53:43;;;;;;;6.95;3.80;;;19.10;99.90;;;;;;4992309;28;20030;-82
2021/06/27 05:56:14;;;;;;;9.35;4.15;;;19.20;99.90;;;;;;4991359;28;20045;-82
2021/06/27 05:58:41;;;;;;;5.93;3.63;;;19.30;99.90;;;;;;4996536;28;20033;-83
2021/06/27 06:01:10;;;;;;;4.93;3.50;;;19.30;99.90;;;;;;5010447;28;20042;-83
2021/06/27 06:03:36;;;;;;;4.95;3.03;;;19.40;99.90;;;;;;5011269;28;20487;-83
2021/06/27 06:06:03;;;;;;;7.50;3.30;;;19.40;99.90;;;;;;5016484;28;20035;-83
2021/06/27 06:08:29;;;;;;;5.43;3.17;;;19.30;99.90;;;;;;4999790;28;20586;-83
2021/06/27 06:10:54;;;;;;;5.00;3.05;;;19.30;99.90;;;;;;5012008;28;20116;-83
2021/06/27 06:13:20;;;;;;;5.22;3.30;;;19.30;99.90;;;;;;5011143;28;20030;-82
2021/06/27 06:15:46;;;;;;;6.00;3.42;;;19.30;99.90;;;;;;5003179;28;20030;-83
2021/06/27 06:18:12;;;;;;;5.53;3.30;;;19.30;99.90;;;;;;4992901;28;20042;-83
2021/06/27 06:20:37;;;;;;;6.25;3.28;;;19.30;99.90;;;;;;4993485;28;20030;-82
2021/06/27 06:23:04;;;;;;;5.57;3.65;;;19.40;99.90;;;;;;4996409;28;20030;-83
2021/06/27 06:25:30;;;;;;;5.78;3.92;;;19.40;99.90;;;;;;4994282;28;20057;-83
2021/06/27 06:27:55;;;;;;;5.90;3.60;;;19.50;99.90;;;;;;4992011;28;20042;-83
2021/06/27 06:30:21;;;;;;;7.13;3.53;;;19.60;99.90;;;;;;5003349;28;20037;-83
2021/06/27 06:32:47;;;;;;;5.68;3.45;;;19.60;99.90;;;;;;5009291;28;20598;-83
2021/06/27 06:35:12;;;;;;;5.45;3.42;;;19.70;99.90;;;;;;5011084;28;20499;-82
2021/06/27 06:37:38;;;;;;;5.32;3.38;;;20.00;99.90;;;;;;5009590;28;20054;-82
2021/06/27 06:40:05;;;;;;;9.23;3.50;;;20.30;99.90;;;;;;5008168;28;20156;-83
2021/06/27 06:42:30;;;;;;;6.00;3.70;;;20.30;99.90;;;;;;5011247;28;20018;-82
2021/06/27 06:44:56;;;;;;;4.85;3.13;;;20.50;99.90;;;;;;5011990;28;20091;-82
2021/06/27 06:47:22;;;;;;;7.10;3.40;;;20.70;99.90;;;;;;5010246;28;20089;-82
2021/06/27 06:49:50;;;;;;;4.93;2.90;;;20.80;99.90;;;;;;5008918;28;20248;-82
2021/06/27 06:52:15;;;;;;;5.50;3.17;;;20.90;99.90;;;;;;5007858;28;20049;-83
2021/06/27 06:54:41;;;;;;;6.22;3.20;;;20.90;99.90;;;;;;5010760;28;20053;-83
2021/06/27 06:57:07;;;;;;;5.00;3.30;;;21.00;99.90;;;;;;5005077;28;20038;-83
2021/06/27 06:59:33;;;;;;;5.43;3.50;;;21.00;99.90;;;;;;5007399;28;20050;-83
2021/06/27 07:01:58;;;;;;;6.40;3.15;;;21.00;99.90;;;;;;5008867;28;20068;-82
2021/06/27 07:04:24;;;;;;;5.15;3.17;;;20.90;99.90;;;;;;5006151;28;20037;-82
2021/06/27 07:06:50;;;;;;;5.93;2.88;;;21.00;99.90;;;;;;5008841;28;20120;-83
2021/06/27 07:09:16;;;;;;;4.68;2.83;;;21.10;99.90;;;;;;5031429;28;20368;-83
2021/06/27 07:11:41;;;;;;;4.90;2.83;;;21.10;99.90;;;;;;5002292;28;20030;-82
2021/06/27 07:14:07;;;;;;;5.15;3.22;;;21.20;99.90;;;;;;5005089;28;20522;-82
2021/06/27 07:16:33;;;;;;;5.43;3.53;;;21.30;99.90;;;;;;5006628;28;20050;-83
2021/06/27 07:18:59;;;;;;;7.15;3.08;;;21.50;99.90;;;;;;5003415;28;20042;-82
2021/06/27 07:21:27;;;;;;;5.50;3.05;;;21.70;99.90;;;;;;4993265;28;20054;-82
2021/06/27 07:23:54;;;;;;;5.43;3.22;;;21.90;99.90;;;;;;5001984;28;20072;-81
2021/06/27 07:26:20;;;;;;;4.93;2.85;;;22.00;99.90;;;;;;4997625;28;20461;-82
2021/06/27 07:28:46;;;;;;;4.38;2.85;;;22.30;99.90;;;;;;5009127;28;20030;-82
2021/06/27 07:31:11;;;;;;;5.25;3.03;;;22.50;99.90;;;;;;5010023;28;20120;-82
2021/06/27 07:33:37;;;;;;;5.68;2.90;;;22.60;99.90;;;;;;5004285;28;20041;-82
2021/06/27 07:36:03;;;;;;;4.43;2.55;;;22.80;99.90;;;;;;5008501;28;20439;-82
2021/06/27 07:38:29;;;;;;;4.35;2.60;;;22.80;99.90;;;;;;5009952;28;20488;-82
2021/06/27 07:40:54;;;;;;;4.13;2.47;;;22.80;99.90;;;;;;5002276;28;20034;-82
2021/06/27 07:43:20;;;;;;;4.40;2.58;;;22.80;99.90;;;;;;5006089;28;20514;-82
2021/06/27 07:45:45;;;;;;;5.63;2.90;;;22.90;99.90;;;;;;5006776;28;20076;-82
2021/06/27 07:48:12;;;;;;;3.88;2.25;;;23.10;99.90;;;;;;5010139;28;20026;-82
2021/06/27 07:50:38;;;;;;;4.20;2.70;;;23.20;99.90;;;;;;5003903;28;20364;-82
2021/06/27 07:53:06;;;;;;;3.80;2.45;;;23.30;99.90;;;;;;5007798;28;20083;-88
2021/06/27 07:55:33;;;;;;;5.55;2.78;;;23.60;99.90;;;;;;4995167;28;20030;-84
2021/06/27 07:57:59;;;;;;;4.65;2.70;;;23.70;99.90;;;;;;5003519;28;20439;-85
2021/06/27 08:00:24;;;;;;;5.05;2.60;;;23.80;99.90;;;;;;5010296;28;20017;-85
2021/06/27 08:02:50;;;;;;;4.00;2.50;;;23.90;99.90;;;;;;5014552;28;20344;-85
2021/06/27 08:05:16;;;;;;;3.50;2.00;;;24.10;99.90;;;;;;5013068;28;20033;-85
2021/06/27 08:07:43;;;;;;;4.47;2.17;;;24.10;99.90;;;;;;5012592;28;20514;-85
2021/06/27 08:10:09;;;;;;;3.40;2.25;;;24.20;99.90;;;;;;5013826;28;20022;-84
2021/06/27 08:12:36;;;;;;;5.22;2.30;;;24.40;99.90;;;;;;5009611;28;20032;-84
2021/06/27 08:15:03;;;;;;;2.85;1.90;;;24.40;99.90;;;;;;4994675;28;20037;-85
2021/06/27 08:17:29;;;;;;;3.45;2.13;;;24.40;99.90;;;;;;5010599;28;20018;-86
2021/06/27 08:19:54;;;;;;;4.03;2.42;;;24.40;99.90;;;;;;5010802;28;20029;-84
2021/06/27 08:22:20;;;;;;;3.03;1.85;;;24.50;99.90;;;;;;5010100;28;20084;-84
2021/06/27 08:24:47;;;;;;;3.72;2.42;;;24.60;99.90;;;;;;5000580;28;20054;-84
2021/06/27 08:27:13;;;;;;;8.18;1.95;;;24.70;99.90;;;;;;4998132;28;21467;-85
2021/06/27 08:29:38;;;;;;;3.35;2.10;;;24.90;99.90;;;;;;5007930;28;20121;-84
2021/06/27 08:32:05;;;;;;;3.58;2.22;;;24.70;99.90;;;;;;5004524;28;20034;-85
2021/06/27 08:34:30;;;;;;;4.80;2.50;;;24.70;99.90;;;;;;5000960;28;20054;-85
2021/06/27 08:36:56;;;;;;;3.65;2.40;;;24.80;99.90;;;;;;5007108;28;20058;-83
2021/06/27 08:39:22;;;;;;;3.50;2.13;;;25.10;99.90;;;;;;5002449;28;20030;-85
2021/06/27 08:41:48;;;;;;;4.05;2.50;;;25.20;99.90;;;;;;5000335;28;20027;-85
2021/06/27 08:44:14;;;;;;;3.90;2.30;;;25.30;99.90;;;;;;5004519;28;20500;-85
2021/06/27 08:46:44;;;;;;;3.60;2.20;;;25.40;99.90;;;;;;5007365;28;20033;-85
2021/06/27 08:49:12;;;;;;;3.35;2.08;;;25.50;99.90;;;;;;5007981;28;20064;-85
2021/06/27 08:51:39;;;;;;;2.92;1.80;;;25.60;99.90;;;;;;5006289;28;20060;-85
2021/06/27 08:54:10;;;;;;;3.40;1.98;;;25.80;99.90;;;;;;5012880;28;20026;-84
2021/06/27 08:56:38;;;;;;;2.78;1.60;;;25.90;99.90;;;;;;5012758;28;20034;-84
2021/06/27 08:59:07;;;;;;;3.38;2.00;;;26.00;99.20;;;;;;5005743;28;20107;-84
2021/06/27 09:01:32;;;;;;;2.78;1.63;;;25.90;98.60;;;;;;5007616;28;20052;-84
2021/06/27 09:03:58;;;;;;;3.65;1.92;;;26.00;99.90;;;;;;5004239;28;20794;-85
2021/06/27 09:06:31;;;;;;;3.30;1.85;;;26.20;99.30;;;;;;5005127;28;20105;-85
2021/06/27 09:09:19;;;;;;;2.92;1.70;;;26.00;99.20;;;;;;5005291;28;20644;-84
2021/06/27 09:12:08;;;;;;;3.50;1.60;;;26.30;98.60;;;;;;5003335;28;20061;-84
2021/06/27 09:14:41;;;;;;;2.47;1.67;;;26.30;98.40;;;;;;5003488;28;20079;-85
2021/06/27 09:17:27;;;;;;;3.13;1.95;;;26.40;97.90;;;;;;5003693;28;20038;-84
2021/06/27 09:19:57;;;;;;;2.95;1.65;;;26.30;97.70;;;;;;5002336;28;20100;-84
2021/06/27 09:22:33;;;;;;;3.20;1.83;;;26.50;97.70;;;;;;5008355;28;20024;-84
2021/06/27 09:25:12;;;;;;;3.28;1.67;;;26.50;98.20;;;;;;5032375;28;20403;-84
2021/06/27 09:27:38;;;;;;;4.45;1.67;;;26.90;97.70;;;;;;5033885;28;20071;-84
2021/06/27 09:30:19;;;;;;;2.90;1.65;;;27.00;97.20;;;;;;5031162;28;20056;-83
2021/06/27 09:32:56;;;;;;;3.03;1.73;;;27.10;95.80;;;;;;5014961;28;20038;-83
2021/06/27 09:35:40;;;;;;;4.13;1.65;;;27.20;95.10;;;;;;4993728;28;20022;-83
2021/06/27 09:38:40;;;;;;;2.97;1.60;;;27.30;95.50;;;;;;4992457;28;20022;-85
2021/06/27 09:41:13;;;;;;;2.80;1.60;;;27.40;96.50;;;;;;4993244;28;20018;-84
2021/06/27 09:43:40;;;;;;;2.20;1.50;;;27.50;94.90;;;;;;5008571;28;20030;-84
2021/06/27 09:46:12;;;;;;;2.83;1.38;;;27.70;94.80;;;;;;4992234;28;20550;-83
2021/06/27 09:48:55;;;;;;;2.97;1.58;;;27.80;95.20;;;;;;5007134;28;20030;-84
2021/06/27 09:51:23;;;;;;;3.42;1.70;;;27.80;93.60;;;;;;4993467;28;20105;-84
2021/06/27 09:53:49;;;;;;;3.10;1.50;;;27.70;92.70;;;;;;5016106;23;20492;-88
2021/06/27 09:56:16;;;;;;;3.03;1.40;;;27.90;93.50;;;;;;5049458;28;20040;-89
2021/06/27 09:58:59;;;;;;;2.28;1.23;;;28.00;93.00;;;;;;5050618;28;20029;-88
2021/06/27 10:01:29;;;;;;;4.32;1.48;;;28.20;92.60;;;;;;5050693;28;20112;-89
2021/06/27 10:03:57;;;;;;;2.78;1.60;;;28.30;93.60;;;;;;5050810;28;21628;-88
2021/06/27 10:06:28;;;;;;;2.22;1.30;;;28.40;93.90;;;;;;5052670;28;20417;-89
2021/06/27 10:08:54;;;;;;;4.65;1.40;;;28.30;91.10;;;;;;5052248;28;20028;-89
2021/06/27 10:11:23;;;;;;;2.88;1.08;;;28.20;91.00;;;;;;5053725;28;20541;-89
2021/06/27 10:13:53;;;;;;;4.10;1.33;;;28.10;90.40;;;;;;5047479;28;20036;-89
2021/06/27 10:16:31;;;;;;;2.40;1.23;;;28.40;87.50;;;;;;5052210;28;20025;-88
2021/06/27 10:18:59;;;;;;;2.30;1.23;;;28.80;90.00;;;;;;5053300;28;20033;-89
2021/06/27 10:21:27;;;;;;;2.40;1.13;;;28.80;87.80;;;;;;5051906;28;20486;-89
2021/06/27 10:23:54;;;;;;;2.45;1.45;;;28.50;86.20;;;;;;5052470;28;20029;-88
2021/06/27 10:26:21;;;;;;;2.05;1.08;;;28.30;88.70;;;;;;5053477;28;20041;-89
2021/06/27 10:28:48;;;;;;;2.90;1.10;;;28.20;87.00;;;;;;5047718;28;20025;-89
2021/06/27 10:31:16;;;;;;;1.85;1.00;;;28.10;87.70;;;;;;5033256;28;20071;-88
2021/06/27 10:33:46;;;;;;;1.77;0.95;;;28.10;87.20;;;;;;5032606;28;20029;-89
2021/06/27 10:36:14;;;;;;;1.92;1.08;;;28.40;85.20;;;;;;5034209;28;20043;-88
2021/06/27 10:38:46;;;;;;;1.80;0.88;;;28.50;83.80;;;;;;5041491;28;20025;-89
2021/06/27 10:41:15;;;;;;;2.03;0.98;;;28.80;81.50;;;;;;5053920;28;20151;-89
2021/06/27 10:43:56;;;;;;;1.90;1.10;;;29.10;82.70;;;;;;5051744;28;20391;-90
2021/06/27 10:46:41;;;;;;;1.48;0.70;;;29.60;79.00;;;;;;5048150;28;20164;-89
2021/06/27 10:49:34;;;;;;;1.63;0.93;;;29.60;82.30;;;;;;5034672;28;20026;-89
2021/06/27 10:52:09;;;;;;;2.00;0.98;;;29.90;79.80;;;;;;5028698;28;20037;-89
2021/06/27 10:54:42;;;;;;;1.85;1.00;;;29.60;77.30;;;;;;5032824;28;20099;-88
2021/06/27 10:57:12;;;;;;;1.58;0.95;;;29.80;79.50;;;;;;5050861;28;20024;-89
2021/06/27 10:59:55;;;;;;;2.10;0.80;;;29.90;76.30;;;;;;5071618;28;20391;-89
2021/06/27 11:02:39;;;;;;;1.73;0.90;;;30.00;76.50;;;;;;5072377;28;20024;-89
2021/06/27 11:05:33;;;;;;;1.85;1.10;;;30.00;76.20;;;;;;5057342;28;20029;-89
2021/06/27 11:08:01;;;;;;;2.20;1.05;;;30.30;74.80;;;;;;5036340;28;20020;-89
2021/06/27 11:10:28;;;;;;;1.85;0.90;;;30.40;73.90;;;;;;5040548;28;20148;-89
2021/06/27 11:13:05;;;;;;;1.55;0.85;;;30.40;73.70;;;;;;5037626;28;20120;-90
2021/06/27 11:15:45;;;;;;;2.05;1.00;;;30.50;75.70;;;;;;5034829;28;20065;-89
2021/06/27 11:18:41;;;;;;;1.75;1.00;;;30.80;72.20;;;;;;5046998;28;20025;-89
2021/06/27 11:21:10;;;;;;;1.25;0.90;;;30.60;71.00;;;;;;5039579;28;20496;-90
2021/06/27 11:23:52;;;;;;;1.58;1.00;;;30.40;72.30;;;;;;5038534;28;20083;-89
2021/06/27 11:26:48;;;;;;;3.33;0.90;;;30.70;71.90;;;;;;5042870;28;20025;-90
2021/06/27 11:29:23;;;;;;;2.17;1.20;;;31.00;71.90;;;;;;5046970;28;20013;-89
2021/06/27 11:31:54;;;;;;;1.73;0.90;;;31.10;68.90;;;;;;5036431;28;20025;-89
2021/06/27 11:34:29;;;;;;;2.03;0.93;;;31.00;69.10;;;;;;5037835;28;20045;-90
2021/06/27 11:37:00;;;;;;;1.55;0.90;;;30.80;70.60;;;;;;5032034;28;20053;-89
2021/06/27 11:39:44;;;;;;;2.10;1.08;;;30.90;72.00;;;;;;5040682;28;20103;-90
2021/06/27 11:42:23;;;;;;;2.03;1.00;;;31.00;70.80;;;;;;5045007;28;20033;-89
2021/06/27 11:45:07;;;;;;;3.28;0.90;;;31.10;71.00;;;;;;5046490;28;20097;-91
2021/06/27 11:47:58;;;;;;;1.65;0.93;;;31.30;70.00;;;;;;5036754;28;20171;-90
2021/06/27 11:50:28;;;;;;;;;;;31.60;67.80;;;;;;5047120;28;20124;-91
2021/06/27 11:52:56;;;;;;;1.65;0.93;;;31.60;68.60;;;;;;5037413;28;19912;-91
2021/06/27 11:55:29;;;;;;;1.85;1.00;;;32.00;70.30;;;;;;5038937;28;20029;-90
2021/06/27 11:57:59;;;;;;;1.80;1.00;;;32.40;66.90;;;;;;5035504;28;20040;-91
2021/06/27 12:00:46;;;;;;;2.47;0.98;;;32.60;65.70;;;;;;5047691;28;20116;-91
2021/06/27 12:03:23;;;;;;;1.63;0.82;;;32.60;65.70;;;;;;5035726;28;20029;-90
2021/06/27 12:05:57;;;;;;;1.67;0.90;;;32.60;63.80;;;;;;5042627;28;20029;-91
2021/06/27 12:08:26;;;;;;;1.40;0.90;;;32.40;64.70;;;;;;5039175;28;20025;-92
2021/06/27 12:10:56;;;;;;;1.45;1.00;;;32.20;64.80;;;;;;5036033;28;20045;-90
2021/06/27 12:13:27;;;;;;;1.90;0.95;;;32.50;69.20;;;;;;5038081;28;20542;-90
2021/06/27 12:16:00;;;;;;;1.75;0.90;;;32.70;65.30;;;;;;5032116;28;20049;-90
2021/06/27 12:18:30;;;;;;;1.20;0.75;;;32.80;65.30;;;;;;5035212;28;20030;-91
2021/06/27 12:21:03;;;;;;;1.65;0.93;;;33.00;66.60;;;;;;5040650;28;20028;-90
2021/06/27 12:23:39;;;;;;;1.75;0.80;;;33.10;63.20;;;;;;5035147;28;20025;-91
2021/06/27 12:26:16;;;;;;;1.38;0.73;;;32.80;61.80;;;;;;5035096;28;20033;-89
2021/06/27 12:28:50;;;;;;;1.73;0.98;;;33.00;65.50;;;;;;5036369;28;20439;-91
2021/06/27 12:31:19;;;;;;;1.30;0.77;;;33.30;63.60;;;;;;5035858;28;20029;-91
2021/06/27 12:33:54;;;;;;;1.33;0.70;;;33.50;60.80;;;;;;5037874;28;20026;-90
2021/06/27 12:40:41;;;;;;;;;;;;;;;;;;;;;
2021/06/27 12:43:41;;;;;;;1.70;1.00;;;33.40;59.60;;;;;;4956088;28;20039;-91
2021/06/27 12:46:28;;;;;;;1.30;1.00;;;33.20;60.60;;;;;;5051766;28;20025;-89
2021/06/27 12:49:24;;;;;;;2.97;1.00;;;33.30;60.20;;;;;;5041986;28;20029;-92
2021/06/27 12:52:08;;;;;;;1.60;0.93;;;33.50;59.00;;;;;;5041178;28;20065;-91
2021/06/27 12:54:44;;;;;;;1.95;1.00;;;33.80;61.60;;;;;;5044799;28;20029;-91
2021/06/27 12:57:13;;;;;;;1.77;1.00;;;33.90;59.20;;;;;;5046471;28;20021;-91
2021/06/27 12:59:41;;;;;;;1.85;0.90;;;33.70;59.70;;;;;;5049840;28;20136;-92
2021/06/27 13:02:10;;;;;;;2.42;1.08;;;33.60;60.60;;;;;;5042095;28;20079;-91